sensor_id;sensor_type;location;lat;lon;timestamp;temperature;humidity
28845;DHT22;15976;47.938;7.758;2023-12-20T00:01:10;8.50;75.70
28845;DHT22;15976;47.938;7.758;2023-12-20T00:03:37;8.60;75.80
28845;DHT22;15976;47.938;7.758;2023-12-20T00:06:10;8.50;75.80
28845;DHT22;15976;47.938;7.758;2023-12-20T00:08:37;8.50;75.90
28845;DHT22;15976;47.938;7.758;2023-12-20T00:11:04;8.60;75.90
28845;DHT22;15976;47.938;7.758;2023-12-20T00:13:31;8.50;75.80
28845;DHT22;15976;47.938;7.758;2023-12-20T00:15:59;8.50;75.80
28845;DHT22;15976;47.938;7.758;2023-12-20T00:18:26;8.50;75.80
28845;DHT22;15976;47.938;7.758;2023-12-20T00:20:53;8.50;75.80
28845;DHT22;15976;47.938;7.758;2023-12-20T00:23:20;8.50;75.70
28845;DHT22;15976;47.938;7.758;2023-12-20T00:25:47;8.50;75.60
28845;DHT22;15976;47.938;7.758;2023-12-20T00:28:15;8.60;75.50
28845;DHT22;15976;47.938;7.758;2023-12-20T00:30:42;8.60;75.40
28845;DHT22;15976;47.938;7.758;2023-12-20T00:33:09;8.60;75.30
28845;DHT22;15976;47.938;7.758;2023-12-20T00:35:37;8.60;75.20
28845;DHT22;15976;47.938;7.758;2023-12-20T00:38:04;8.50;75.10
28845;DHT22;15976;47.938;7.758;2023-12-20T00:40:32;8.60;75.10
28845;DHT22;15976;47.938;7.758;2023-12-20T00:43:00;8.50;74.90
28845;DHT22;15976;47.938;7.758;2023-12-20T00:45:27;8.50;75.20
28845;DHT22;15976;47.938;7.758;2023-12-20T00:47:55;8.50;75.60
28845;DHT22;15976;47.938;7.758;2023-12-20T00:50:22;8.30;76.10
28845;DHT22;15976;47.938;7.758;2023-12-20T00:52:52;8.10;76.90
28845;DHT22;15976;47.938;7.758;2023-12-20T00:55:21;8.00;77.90
28845;DHT22;15976;47.938;7.758;2023-12-20T00:57:48;7.90;78.70
28845;DHT22;15976;47.938;7.758;2023-12-20T01:00:15;7.80;79.30
28845;DHT22;15976;47.938;7.758;2023-12-20T01:02:43;7.70;80.00
28845;DHT22;15976;47.938;7.758;2023-12-20T01:05:10;7.70;80.60
28845;DHT22;15976;47.938;7.758;2023-12-20T01:07:37;7.60;81.40
28845;DHT22;15976;47.938;7.758;2023-12-20T01:10:04;7.60;82.30
28845;DHT22;15976;47.938;7.758;2023-12-20T01:12:31;7.50;83.00
28845;DHT22;15976;47.938;7.758;2023-12-20T01:14:58;7.40;83.60
28845;DHT22;15976;47.938;7.758;2023-12-20T01:17:25;7.40;84.50
28845;DHT22;15976;47.938;7.758;2023-12-20T01:19:52;7.30;84.90
28845;DHT22;15976;47.938;7.758;2023-12-20T01:22:20;7.30;85.80
28845;DHT22;15976;47.938;7.758;2023-12-20T01:24:47;7.20;86.60
28845;DHT22;15976;47.938;7.758;2023-12-20T01:27:14;7.20;87.50
28845;DHT22;15976;47.938;7.758;2023-12-20T01:29:42;7.10;88.50
28845;DHT22;15976;47.938;7.758;2023-12-20T01:32:09;7.20;89.30
28845;DHT22;15976;47.938;7.758;2023-12-20T01:34:36;7.10;89.60
28845;DHT22;15976;47.938;7.758;2023-12-20T01:37:04;7.10;90.10
28845;DHT22;15976;47.938;7.758;2023-12-20T01:39:31;7.10;90.50
28845;DHT22;15976;47.938;7.758;2023-12-20T01:41:58;7.10;90.70
28845;DHT22;15976;47.938;7.758;2023-12-20T01:44:26;7.10;90.90
28845;DHT22;15976;47.938;7.758;2023-12-20T01:46:53;7.10;91.00
28845;DHT22;15976;47.938;7.758;2023-12-20T01:49:22;7.10;91.30
28845;DHT22;15976;47.938;7.758;2023-12-20T01:51:50;7.10;91.40
28845;DHT22;15976;47.938;7.758;2023-12-20T01:54:17;7.10;91.60
28845;DHT22;15976;47.938;7.758;2023-12-20T01:56:46;7.10;91.70
28845;DHT22;15976;47.938;7.758;2023-12-20T01:59:13;7.10;91.90
28845;DHT22;15976;47.938;7.758;2023-12-20T02:01:40;7.10;92.00
28845;DHT22;15976;47.938;7.758;2023-12-20T02:04:08;7.10;92.00
28845;DHT22;15976;47.938;7.758;2023-12-20T02:06:35;7.10;92.10
28845;DHT22;15976;47.938;7.758;2023-12-20T02:09:04;7.10;92.20
28845;DHT22;15976;47.938;7.758;2023-12-20T02:11:31;7.10;92.30
28845;DHT22;15976;47.938;7.758;2023-12-20T02:13:58;7.10;92.40
28845;DHT22;15976;47.938;7.758;2023-12-20T02:16:25;7.10;92.50
28845;DHT22;15976;47.938;7.758;2023-12-20T02:18:53;7.10;92.50
28845;DHT22;15976;47.938;7.758;2023-12-20T02:21:33;7.10;92.60
28845;DHT22;15976;47.938;7.758;2023-12-20T02:24:01;7.10;92.70
28845;DHT22;15976;47.938;7.758;2023-12-20T02:26:28;7.10;92.80
28845;DHT22;15976;47.938;7.758;2023-12-20T02:28:55;7.10;92.80
28845;DHT22;15976;47.938;7.758;2023-12-20T02:31:23;7.00;92.70
28845;DHT22;15976;47.938;7.758;2023-12-20T02:33:50;7.00;92.90
28845;DHT22;15976;47.938;7.758;2023-12-20T02:36:18;7.00;93.10
28845;DHT22;15976;47.938;7.758;2023-12-20T02:38:45;7.00;93.10
28845;DHT22;15976;47.938;7.758;2023-12-20T02:41:12;7.00;93.10
28845;DHT22;15976;47.938;7.758;2023-12-20T02:43:39;7.00;93.20
28845;DHT22;15976;47.938;7.758;2023-12-20T02:46:06;7.00;93.30
28845;DHT22;15976;47.938;7.758;2023-12-20T02:48:33;7.00;93.40
28845;DHT22;15976;47.938;7.758;2023-12-20T02:51:00;7.00;93.40
28845;DHT22;15976;47.938;7.758;2023-12-20T02:53:27;7.00;93.50
28845;DHT22;15976;47.938;7.758;2023-12-20T02:55:54;7.00;93.50
28845;DHT22;15976;47.938;7.758;2023-12-20T02:58:21;7.00;93.60
28845;DHT22;15976;47.938;7.758;2023-12-20T03:00:48;7.00;94.00
28845;DHT22;15976;47.938;7.758;2023-12-20T03:03:15;7.00;93.70
28845;DHT22;15976;47.938;7.758;2023-12-20T03:05:42;7.00;93.70
28845;DHT22;15976;47.938;7.758;2023-12-20T03:08:10;7.00;93.70
28845;DHT22;15976;47.938;7.758;2023-12-20T03:10:37;7.00;93.80
28845;DHT22;15976;47.938;7.758;2023-12-20T03:13:04;7.00;93.80
28845;DHT22;15976;47.938;7.758;2023-12-20T03:15:32;7.00;93.80
28845;DHT22;15976;47.938;7.758;2023-12-20T03:17:59;6.90;93.80
28845;DHT22;15976;47.938;7.758;2023-12-20T03:20:27;7.00;93.90
28845;DHT22;15976;47.938;7.758;2023-12-20T03:22:55;7.00;93.90
28845;DHT22;15976;47.938;7.758;2023-12-20T03:25:22;7.00;94.00
28845;DHT22;15976;47.938;7.758;2023-12-20T03:27:49;6.90;94.00
28845;DHT22;15976;47.938;7.758;2023-12-20T03:30:17;6.90;94.00
28845;DHT22;15976;47.938;7.758;2023-12-20T03:32:45;7.00;94.00
28845;DHT22;15976;47.938;7.758;2023-12-20T03:35:12;6.90;94.00
28845;DHT22;15976;47.938;7.758;2023-12-20T03:37:39;6.90;94.00
28845;DHT22;15976;47.938;7.758;2023-12-20T03:40:09;6.90;94.00
28845;DHT22;15976;47.938;7.758;2023-12-20T03:42:36;6.90;94.20
28845;DHT22;15976;47.938;7.758;2023-12-20T03:45:03;6.90;94.20
28845;DHT22;15976;47.938;7.758;2023-12-20T03:47:30;6.90;94.20
28845;DHT22;15976;47.938;7.758;2023-12-20T03:49:57;6.90;94.10
28845;DHT22;15976;47.938;7.758;2023-12-20T03:52:25;6.90;94.20
28845;DHT22;15976;47.938;7.758;2023-12-20T03:54:52;6.90;94.30
28845;DHT22;15976;47.938;7.758;2023-12-20T03:57:21;6.90;94.30
28845;DHT22;15976;47.938;7.758;2023-12-20T03:59:48;6.90;94.70
28845;DHT22;15976;47.938;7.758;2023-12-20T04:02:15;7.00;94.40
28845;DHT22;15976;47.938;7.758;2023-12-20T04:04:42;7.00;94.40
28845;DHT22;15976;47.938;7.758;2023-12-20T04:07:10;7.00;94.40
28845;DHT22;15976;47.938;7.758;2023-12-20T04:09:37;7.00;94.30
28845;DHT22;15976;47.938;7.758;2023-12-20T04:12:04;7.00;94.40
28845;DHT22;15976;47.938;7.758;2023-12-20T04:14:32;7.00;94.30
28845;DHT22;15976;47.938;7.758;2023-12-20T04:16:59;7.00;94.40
28845;DHT22;15976;47.938;7.758;2023-12-20T04:19:26;7.00;94.40
28845;DHT22;15976;47.938;7.758;2023-12-20T04:21:54;7.00;94.40
28845;DHT22;15976;47.938;7.758;2023-12-20T04:24:21;7.00;94.30
28845;DHT22;15976;47.938;7.758;2023-12-20T04:26:49;7.00;94.30
28845;DHT22;15976;47.938;7.758;2023-12-20T04:29:16;7.00;94.40
28845;DHT22;15976;47.938;7.758;2023-12-20T04:31:43;7.00;94.50
28845;DHT22;15976;47.938;7.758;2023-12-20T04:34:10;7.00;94.60
28845;DHT22;15976;47.938;7.758;2023-12-20T04:36:37;7.00;94.50
28845;DHT22;15976;47.938;7.758;2023-12-20T04:39:04;7.00;94.50
28845;DHT22;15976;47.938;7.758;2023-12-20T04:41:33;7.00;94.50
28845;DHT22;15976;47.938;7.758;2023-12-20T04:44:00;7.00;94.50
28845;DHT22;15976;47.938;7.758;2023-12-20T04:46:27;7.10;94.60
28845;DHT22;15976;47.938;7.758;2023-12-20T04:48:54;7.10;94.50
28845;DHT22;15976;47.938;7.758;2023-12-20T04:51:22;7.00;94.40
28845;DHT22;15976;47.938;7.758;2023-12-20T04:53:49;7.10;94.50
28845;DHT22;15976;47.938;7.758;2023-12-20T04:56:16;7.10;94.60
28845;DHT22;15976;47.938;7.758;2023-12-20T04:58:43;7.10;94.40
28845;DHT22;15976;47.938;7.758;2023-12-20T05:01:10;7.00;94.40
28845;DHT22;15976;47.938;7.758;2023-12-20T05:03:38;7.00;94.50
28845;DHT22;15976;47.938;7.758;2023-12-20T05:06:05;7.10;94.60
28845;DHT22;15976;47.938;7.758;2023-12-20T05:08:32;7.10;94.60
28845;DHT22;15976;47.938;7.758;2023-12-20T05:11:00;7.10;94.50
28845;DHT22;15976;47.938;7.758;2023-12-20T05:13:27;7.10;94.50
28845;DHT22;15976;47.938;7.758;2023-12-20T05:16:08;7.20;94.60
28845;DHT22;15976;47.938;7.758;2023-12-20T05:18:36;7.20;94.50
28845;DHT22;15976;47.938;7.758;2023-12-20T05:21:03;7.20;94.50
28845;DHT22;15976;47.938;7.758;2023-12-20T05:23:32;7.20;94.30
28845;DHT22;15976;47.938;7.758;2023-12-20T05:25:59;7.20;94.50
28845;DHT22;15976;47.938;7.758;2023-12-20T05:28:26;7.20;94.40
28845;DHT22;15976;47.938;7.758;2023-12-20T05:30:54;7.20;94.50
28845;DHT22;15976;47.938;7.758;2023-12-20T05:33:23;7.10;94.40
28845;DHT22;15976;47.938;7.758;2023-12-20T05:35:52;7.10;94.30
28845;DHT22;15976;47.938;7.758;2023-12-20T05:38:19;7.10;94.40
28845;DHT22;15976;47.938;7.758;2023-12-20T05:40:47;7.20;94.50
28845;DHT22;15976;47.938;7.758;2023-12-20T05:43:14;7.10;94.50
28845;DHT22;15976;47.938;7.758;2023-12-20T05:45:41;7.10;94.40
28845;DHT22;15976;47.938;7.758;2023-12-20T05:48:09;7.10;94.40
28845;DHT22;15976;47.938;7.758;2023-12-20T05:50:36;7.10;94.40
28845;DHT22;15976;47.938;7.758;2023-12-20T05:53:04;7.20;94.50
28845;DHT22;15976;47.938;7.758;2023-12-20T05:55:31;7.20;94.50
28845;DHT22;15976;47.938;7.758;2023-12-20T05:57:58;7.20;94.50
28845;DHT22;15976;47.938;7.758;2023-12-20T06:00:28;7.20;94.50
28845;DHT22;15976;47.938;7.758;2023-12-20T06:02:55;7.20;94.40
28845;DHT22;15976;47.938;7.758;2023-12-20T06:05:23;7.20;94.40
28845;DHT22;15976;47.938;7.758;2023-12-20T06:07:50;7.20;94.30
28845;DHT22;15976;47.938;7.758;2023-12-20T06:10:18;7.20;94.30
28845;DHT22;15976;47.938;7.758;2023-12-20T06:12:45;7.20;94.40
28845;DHT22;15976;47.938;7.758;2023-12-20T06:15:14;7.20;94.40
28845;DHT22;15976;47.938;7.758;2023-12-20T06:17:41;7.20;94.40
28845;DHT22;15976;47.938;7.758;2023-12-20T06:20:10;7.20;94.30
28845;DHT22;15976;47.938;7.758;2023-12-20T06:22:37;7.20;94.80
28845;DHT22;15976;47.938;7.758;2023-12-20T06:25:04;7.20;94.40
28845;DHT22;15976;47.938;7.758;2023-12-20T06:27:32;7.20;94.30
28845;DHT22;15976;47.938;7.758;2023-12-20T06:29:59;7.20;94.40
28845;DHT22;15976;47.938;7.758;2023-12-20T06:32:27;7.30;94.40
28845;DHT22;15976;47.938;7.758;2023-12-20T06:34:56;7.30;94.40
28845;DHT22;15976;47.938;7.758;2023-12-20T06:37:23;7.30;94.50
28845;DHT22;15976;47.938;7.758;2023-12-20T06:39:50;7.30;94.40
28845;DHT22;15976;47.938;7.758;2023-12-20T06:42:17;7.40;94.40
28845;DHT22;15976;47.938;7.758;2023-12-20T06:44:47;7.40;94.40
28845;DHT22;15976;47.938;7.758;2023-12-20T06:47:14;7.40;94.40
28845;DHT22;15976;47.938;7.758;2023-12-20T06:49:41;7.40;94.30
28845;DHT22;15976;47.938;7.758;2023-12-20T06:52:11;7.40;94.30
28845;DHT22;15976;47.938;7.758;2023-12-20T06:54:39;7.40;94.20
28845;DHT22;15976;47.938;7.758;2023-12-20T06:57:07;7.40;94.20
28845;DHT22;15976;47.938;7.758;2023-12-20T06:59:38;7.40;94.30
28845;DHT22;15976;47.938;7.758;2023-12-20T07:02:06;7.40;94.10
28845;DHT22;15976;47.938;7.758;2023-12-20T07:04:41;7.30;94.20
28845;DHT22;15976;47.938;7.758;2023-12-20T07:07:08;7.40;94.30
28845;DHT22;15976;47.938;7.758;2023-12-20T07:09:36;7.40;94.40
28845;DHT22;15976;47.938;7.758;2023-12-20T07:12:04;7.40;94.30
28845;DHT22;15976;47.938;7.758;2023-12-20T07:14:31;7.40;94.30
28845;DHT22;15976;47.938;7.758;2023-12-20T07:16:58;7.40;94.30
28845;DHT22;15976;47.938;7.758;2023-12-20T07:19:25;7.40;94.20
28845;DHT22;15976;47.938;7.758;2023-12-20T07:21:52;7.40;94.30
28845;DHT22;15976;47.938;7.758;2023-12-20T07:24:21;7.40;94.30
28845;DHT22;15976;47.938;7.758;2023-12-20T07:26:48;7.40;94.20
28845;DHT22;15976;47.938;7.758;2023-12-20T07:29:16;7.50;94.20
28845;DHT22;15976;47.938;7.758;2023-12-20T07:31:43;7.50;94.30
28845;DHT22;15976;47.938;7.758;2023-12-20T07:34:10;7.40;94.20
28845;DHT22;15976;47.938;7.758;2023-12-20T07:36:37;7.50;94.20
28845;DHT22;15976;47.938;7.758;2023-12-20T07:39:04;7.40;94.00
28845;DHT22;15976;47.938;7.758;2023-12-20T07:41:31;7.40;94.40
28845;DHT22;15976;47.938;7.758;2023-12-20T07:43:58;7.30;94.00
28845;DHT22;15976;47.938;7.758;2023-12-20T07:46:26;7.30;94.20
28845;DHT22;15976;47.938;7.758;2023-12-20T07:48:53;7.40;94.30
28845;DHT22;15976;47.938;7.758;2023-12-20T07:51:20;7.40;94.40
28845;DHT22;15976;47.938;7.758;2023-12-20T07:53:47;7.50;94.40
28845;DHT22;15976;47.938;7.758;2023-12-20T07:56:19;7.50;94.30
28845;DHT22;15976;47.938;7.758;2023-12-20T07:58:46;7.50;94.10
28845;DHT22;15976;47.938;7.758;2023-12-20T08:01:20;7.50;94.10
28845;DHT22;15976;47.938;7.758;2023-12-20T08:03:49;7.50;94.20
28845;DHT22;15976;47.938;7.758;2023-12-20T08:06:18;7.50;94.10
28845;DHT22;15976;47.938;7.758;2023-12-20T08:08:45;7.50;94.20
28845;DHT22;15976;47.938;7.758;2023-12-20T08:11:20;7.60;94.30
28845;DHT22;15976;47.938;7.758;2023-12-20T08:13:47;7.60;94.20
28845;DHT22;15976;47.938;7.758;2023-12-20T08:16:14;7.60;94.20
28845;DHT22;15976;47.938;7.758;2023-12-20T08:18:45;7.60;94.10
28845;DHT22;15976;47.938;7.758;2023-12-20T08:21:13;7.60;94.10
28845;DHT22;15976;47.938;7.758;2023-12-20T08:23:41;7.60;94.00
28845;DHT22;15976;47.938;7.758;2023-12-20T08:26:08;7.60;94.10
28845;DHT22;15976;47.938;7.758;2023-12-20T08:28:35;7.60;94.00
28845;DHT22;15976;47.938;7.758;2023-12-20T08:31:06;7.60;94.10
28845;DHT22;15976;47.938;7.758;2023-12-20T08:33:47;7.70;94.10
28845;DHT22;15976;47.938;7.758;2023-12-20T08:36:15;7.70;94.00
28845;DHT22;15976;47.938;7.758;2023-12-20T08:38:44;7.70;93.90
28845;DHT22;15976;47.938;7.758;2023-12-20T08:41:13;7.70;93.90
28845;DHT22;15976;47.938;7.758;2023-12-20T08:43:41;7.80;93.90
28845;DHT22;15976;47.938;7.758;2023-12-20T08:46:08;7.80;93.90
28845;DHT22;15976;47.938;7.758;2023-12-20T08:48:39;7.80;93.90
28845;DHT22;15976;47.938;7.758;2023-12-20T08:51:06;7.90;93.90
28845;DHT22;15976;47.938;7.758;2023-12-20T08:53:36;7.90;93.80
28845;DHT22;15976;47.938;7.758;2023-12-20T08:56:03;8.00;93.80
28845;DHT22;15976;47.938;7.758;2023-12-20T08:58:32;8.00;93.80
28845;DHT22;15976;47.938;7.758;2023-12-20T09:01:00;8.00;93.70
28845;DHT22;15976;47.938;7.758;2023-12-20T09:03:29;8.00;93.70
28845;DHT22;15976;47.938;7.758;2023-12-20T09:05:56;8.00;93.60
28845;DHT22;15976;47.938;7.758;2023-12-20T09:08:24;8.00;93.60
28845;DHT22;15976;47.938;7.758;2023-12-20T09:10:51;8.10;93.70
28845;DHT22;15976;47.938;7.758;2023-12-20T09:13:18;8.10;93.50
28845;DHT22;15976;47.938;7.758;2023-12-20T09:15:46;8.10;93.50
28845;DHT22;15976;47.938;7.758;2023-12-20T09:18:13;8.00;93.40
28845;DHT22;15976;47.938;7.758;2023-12-20T09:20:40;8.10;93.40
28845;DHT22;15976;47.938;7.758;2023-12-20T09:23:10;8.10;93.40
28845;DHT22;15976;47.938;7.758;2023-12-20T09:25:37;8.10;93.30
28845;DHT22;15976;47.938;7.758;2023-12-20T09:28:04;8.10;93.30
28845;DHT22;15976;47.938;7.758;2023-12-20T09:30:32;8.10;93.30
28845;DHT22;15976;47.938;7.758;2023-12-20T09:32:59;8.20;93.30
28845;DHT22;15976;47.938;7.758;2023-12-20T09:35:26;8.20;93.10
28845;DHT22;15976;47.938;7.758;2023-12-20T09:37:53;8.20;93.10
28845;DHT22;15976;47.938;7.758;2023-12-20T09:40:22;8.30;93.10
28845;DHT22;15976;47.938;7.758;2023-12-20T09:43:11;8.30;93.10
28845;DHT22;15976;47.938;7.758;2023-12-20T09:45:40;8.40;93.10
28845;DHT22;15976;47.938;7.758;2023-12-20T09:48:10;8.50;93.10
28845;DHT22;15976;47.938;7.758;2023-12-20T09:50:38;8.60;93.00
28845;DHT22;15976;47.938;7.758;2023-12-20T09:53:08;8.60;92.60
28845;DHT22;15976;47.938;7.758;2023-12-20T09:55:37;8.70;92.40
28845;DHT22;15976;47.938;7.758;2023-12-20T09:58:05;8.80;92.30
28845;DHT22;15976;47.938;7.758;2023-12-20T10:00:35;8.90;92.00
28845;DHT22;15976;47.938;7.758;2023-12-20T10:03:03;8.90;91.70
28845;DHT22;15976;47.938;7.758;2023-12-20T10:05:34;9.00;91.70
28845;DHT22;15976;47.938;7.758;2023-12-20T10:08:02;9.10;91.40
28845;DHT22;15976;47.938;7.758;2023-12-20T10:10:31;9.20;91.20
28845;DHT22;15976;47.938;7.758;2023-12-20T10:13:12;9.20;91.00
28845;DHT22;15976;47.938;7.758;2023-12-20T10:15:41;9.20;90.80
28845;DHT22;15976;47.938;7.758;2023-12-20T10:18:09;9.30;90.50
28845;DHT22;15976;47.938;7.758;2023-12-20T10:20:38;9.30;90.40
28845;DHT22;15976;47.938;7.758;2023-12-20T10:23:10;9.30;90.10
28845;DHT22;15976;47.938;7.758;2023-12-20T10:25:37;9.30;90.00
28845;DHT22;15976;47.938;7.758;2023-12-20T10:28:16;9.30;89.60
28845;DHT22;15976;47.938;7.758;2023-12-20T10:30:46;9.40;89.00
28845;DHT22;15976;47.938;7.758;2023-12-20T10:33:13;9.40;88.30
28845;DHT22;15976;47.938;7.758;2023-12-20T10:35:50;9.40;87.50
28845;DHT22;15976;47.938;7.758;2023-12-20T10:38:17;9.40;87.00
28845;DHT22;15976;47.938;7.758;2023-12-20T10:40:45;9.50;86.70
28845;DHT22;15976;47.938;7.758;2023-12-20T10:43:15;9.50;85.90
28845;DHT22;15976;47.938;7.758;2023-12-20T10:45:43;9.50;85.10
28845;DHT22;15976;47.938;7.758;2023-12-20T10:48:13;9.50;84.20
28845;DHT22;15976;47.938;7.758;2023-12-20T10:50:41;9.60;84.00
28845;DHT22;15976;47.938;7.758;2023-12-20T10:53:13;9.60;83.50
28845;DHT22;15976;47.938;7.758;2023-12-20T10:55:41;9.60;82.80
28845;DHT22;15976;47.938;7.758;2023-12-20T10:58:10;9.60;82.30
28845;DHT22;15976;47.938;7.758;2023-12-20T11:00:40;9.60;82.10
28845;DHT22;15976;47.938;7.758;2023-12-20T11:03:12;9.70;81.60
28845;DHT22;15976;47.938;7.758;2023-12-20T11:05:51;9.70;80.90
28845;DHT22;15976;47.938;7.758;2023-12-20T11:08:33;9.70;80.60
28845;DHT22;15976;47.938;7.758;2023-12-20T11:11:07;9.80;80.40
28845;DHT22;15976;47.938;7.758;2023-12-20T11:13:43;9.90;80.00
28845;DHT22;15976;47.938;7.758;2023-12-20T11:16:12;9.90;79.70
28845;DHT22;15976;47.938;7.758;2023-12-20T11:18:41;10.00;79.50
28845;DHT22;15976;47.938;7.758;2023-12-20T11:21:11;10.00;79.80
28845;DHT22;15976;47.938;7.758;2023-12-20T11:23:38;10.00;78.00
28845;DHT22;15976;47.938;7.758;2023-12-20T11:26:06;10.00;77.60
28845;DHT22;15976;47.938;7.758;2023-12-20T11:28:33;9.90;77.10
28845;DHT22;15976;47.938;7.758;2023-12-20T11:31:01;10.00;77.70
28845;DHT22;15976;47.938;7.758;2023-12-20T11:33:38;10.00;76.50
28845;DHT22;15976;47.938;7.758;2023-12-20T11:36:14;9.90;76.20
28845;DHT22;15976;47.938;7.758;2023-12-20T11:38:55;10.00;75.80
28845;DHT22;15976;47.938;7.758;2023-12-20T11:41:23;10.00;75.30
28845;DHT22;15976;47.938;7.758;2023-12-20T11:43:54;10.10;75.30
28845;DHT22;15976;47.938;7.758;2023-12-20T11:46:23;10.00;75.00
28845;DHT22;15976;47.938;7.758;2023-12-20T11:48:52;10.00;74.80
28845;DHT22;15976;47.938;7.758;2023-12-20T11:51:20;10.00;74.40
28845;DHT22;15976;47.938;7.758;2023-12-20T11:53:51;9.90;74.80
28845;DHT22;15976;47.938;7.758;2023-12-20T11:56:19;9.80;74.00
28845;DHT22;15976;47.938;7.758;2023-12-20T11:58:47;9.70;74.10
28845;DHT22;15976;47.938;7.758;2023-12-20T12:01:19;9.60;74.40
28845;DHT22;15976;47.938;7.758;2023-12-20T12:03:48;9.60;74.30
28845;DHT22;15976;47.938;7.758;2023-12-20T12:06:15;9.50;74.30
28845;DHT22;15976;47.938;7.758;2023-12-20T12:08:42;9.50;74.10
28845;DHT22;15976;47.938;7.758;2023-12-20T12:11:10;9.40;74.90
28845;DHT22;15976;47.938;7.758;2023-12-20T12:13:37;9.40;73.80
28845;DHT22;15976;47.938;7.758;2023-12-20T12:16:05;9.40;73.60
28845;DHT22;15976;47.938;7.758;2023-12-20T12:18:32;9.40;73.40
28845;DHT22;15976;47.938;7.758;2023-12-20T12:21:02;9.40;73.40
28845;DHT22;15976;47.938;7.758;2023-12-20T12:23:38;9.40;73.40
28845;DHT22;15976;47.938;7.758;2023-12-20T12:26:06;9.40;73.00
28845;DHT22;15976;47.938;7.758;2023-12-20T12:28:34;9.40;73.00
28845;DHT22;15976;47.938;7.758;2023-12-20T12:31:02;9.50;72.90
28845;DHT22;15976;47.938;7.758;2023-12-20T12:33:30;9.50;72.60
28845;DHT22;15976;47.938;7.758;2023-12-20T12:35:57;9.60;72.10
28845;DHT22;15976;47.938;7.758;2023-12-20T12:38:24;9.60;71.40
28845;DHT22;15976;47.938;7.758;2023-12-20T12:40:52;9.60;71.10
28845;DHT22;15976;47.938;7.758;2023-12-20T12:43:20;9.60;71.10
28845;DHT22;15976;47.938;7.758;2023-12-20T12:45:50;9.70;70.40
28845;DHT22;15976;47.938;7.758;2023-12-20T12:48:17;9.80;69.90
28845;DHT22;15976;47.938;7.758;2023-12-20T12:50:48;10.00;69.60
28845;DHT22;15976;47.938;7.758;2023-12-20T12:53:16;10.10;69.20
28845;DHT22;15976;47.938;7.758;2023-12-20T12:55:47;10.20;69.40
28845;DHT22;15976;47.938;7.758;2023-12-20T12:58:14;10.20;67.60
28845;DHT22;15976;47.938;7.758;2023-12-20T13:00:42;10.20;66.90
28845;DHT22;15976;47.938;7.758;2023-12-20T13:03:09;10.10;66.50
28845;DHT22;15976;47.938;7.758;2023-12-20T13:05:36;10.20;66.50
28845;DHT22;15976;47.938;7.758;2023-12-20T13:08:08;10.30;66.70
28845;DHT22;15976;47.938;7.758;2023-12-20T13:10:36;10.30;65.90
28845;DHT22;15976;47.938;7.758;2023-12-20T13:13:03;10.30;65.30
28845;DHT22;15976;47.938;7.758;2023-12-20T13:15:31;10.40;65.50
28845;DHT22;15976;47.938;7.758;2023-12-20T13:17:58;10.40;65.80
28845;DHT22;15976;47.938;7.758;2023-12-20T13:20:27;10.50;65.00
28845;DHT22;15976;47.938;7.758;2023-12-20T13:22:54;10.50;64.30
28845;DHT22;15976;47.938;7.758;2023-12-20T13:25:21;10.40;63.90
28845;DHT22;15976;47.938;7.758;2023-12-20T13:27:49;10.40;63.60
28845;DHT22;15976;47.938;7.758;2023-12-20T13:30:17;10.30;63.50
28845;DHT22;15976;47.938;7.758;2023-12-20T13:32:44;10.20;64.00
28845;DHT22;15976;47.938;7.758;2023-12-20T13:35:11;10.20;63.80
28845;DHT22;15976;47.938;7.758;2023-12-20T13:37:39;10.20;64.00
28845;DHT22;15976;47.938;7.758;2023-12-20T13:40:06;10.10;63.70
28845;DHT22;15976;47.938;7.758;2023-12-20T13:42:33;10.10;63.90
28845;DHT22;15976;47.938;7.758;2023-12-20T13:45:01;10.10;64.00
28845;DHT22;15976;47.938;7.758;2023-12-20T13:47:28;10.00;64.00
28845;DHT22;15976;47.938;7.758;2023-12-20T13:49:56;10.00;64.00
28845;DHT22;15976;47.938;7.758;2023-12-20T13:52:23;10.00;64.10
28845;DHT22;15976;47.938;7.758;2023-12-20T13:54:50;9.90;64.30
28845;DHT22;15976;47.938;7.758;2023-12-20T13:57:19;9.90;64.60
28845;DHT22;15976;47.938;7.758;2023-12-20T14:00:06;9.90;65.00
28845;DHT22;15976;47.938;7.758;2023-12-20T14:02:39;9.90;65.50
28845;DHT22;15976;47.938;7.758;2023-12-20T14:05:06;9.90;65.70
28845;DHT22;15976;47.938;7.758;2023-12-20T14:07:34;9.90;65.90
28845;DHT22;15976;47.938;7.758;2023-12-20T14:10:01;9.90;65.80
28845;DHT22;15976;47.938;7.758;2023-12-20T14:12:29;9.90;65.80
28845;DHT22;15976;47.938;7.758;2023-12-20T14:14:57;9.90;66.30
28845;DHT22;15976;47.938;7.758;2023-12-20T14:17:24;9.90;65.50
28845;DHT22;15976;47.938;7.758;2023-12-20T14:19:51;9.90;65.40
28845;DHT22;15976;47.938;7.758;2023-12-20T14:22:19;9.90;65.40
28845;DHT22;15976;47.938;7.758;2023-12-20T14:24:46;9.90;65.40
28845;DHT22;15976;47.938;7.758;2023-12-20T14:27:13;9.90;65.30
28845;DHT22;15976;47.938;7.758;2023-12-20T14:29:40;9.80;65.20
28845;DHT22;15976;47.938;7.758;2023-12-20T14:32:07;9.70;65.20
28845;DHT22;15976;47.938;7.758;2023-12-20T14:34:37;9.70;65.00
28845;DHT22;15976;47.938;7.758;2023-12-20T14:37:05;9.60;65.00
28845;DHT22;15976;47.938;7.758;2023-12-20T14:39:32;9.60;65.20
28845;DHT22;15976;47.938;7.758;2023-12-20T14:41:59;9.50;65.20
28845;DHT22;15976;47.938;7.758;2023-12-20T14:44:26;9.40;65.20
28845;DHT22;15976;47.938;7.758;2023-12-20T14:46:53;9.40;65.30
28845;DHT22;15976;47.938;7.758;2023-12-20T14:49:21;9.30;65.50
28845;DHT22;15976;47.938;7.758;2023-12-20T14:51:48;9.20;65.40
28845;DHT22;15976;47.938;7.758;2023-12-20T14:54:15;9.20;65.60
28845;DHT22;15976;47.938;7.758;2023-12-20T14:56:42;9.20;65.80
28845;DHT22;15976;47.938;7.758;2023-12-20T14:59:09;9.10;66.00
28845;DHT22;15976;47.938;7.758;2023-12-20T15:01:36;9.10;66.20
28845;DHT22;15976;47.938;7.758;2023-12-20T15:04:03;9.10;66.50
28845;DHT22;15976;47.938;7.758;2023-12-20T15:06:31;9.10;66.60
28845;DHT22;15976;47.938;7.758;2023-12-20T15:09:02;9.00;66.80
28845;DHT22;15976;47.938;7.758;2023-12-20T15:11:32;9.00;67.30
28845;DHT22;15976;47.938;7.758;2023-12-20T15:13:59;8.90;67.00
28845;DHT22;15976;47.938;7.758;2023-12-20T15:16:27;8.90;67.70
28845;DHT22;15976;47.938;7.758;2023-12-20T15:18:56;8.90;67.90
28845;DHT22;15976;47.938;7.758;2023-12-20T15:21:24;8.90;68.00
28845;DHT22;15976;47.938;7.758;2023-12-20T15:23:58;8.90;68.20
28845;DHT22;15976;47.938;7.758;2023-12-20T15:26:33;8.80;68.40
28845;DHT22;15976;47.938;7.758;2023-12-20T15:29:00;8.80;68.60
28845;DHT22;15976;47.938;7.758;2023-12-20T15:31:28;8.70;68.60
28845;DHT22;15976;47.938;7.758;2023-12-20T15:33:55;8.70;68.60
28845;DHT22;15976;47.938;7.758;2023-12-20T15:36:23;8.70;68.70
28845;DHT22;15976;47.938;7.758;2023-12-20T15:38:51;8.60;68.80
28845;DHT22;15976;47.938;7.758;2023-12-20T15:41:19;8.50;68.90
28845;DHT22;15976;47.938;7.758;2023-12-20T15:43:46;8.50;69.10
28845;DHT22;15976;47.938;7.758;2023-12-20T15:46:16;8.50;69.10
28845;DHT22;15976;47.938;7.758;2023-12-20T15:48:44;8.40;69.10
28845;DHT22;15976;47.938;7.758;2023-12-20T15:51:11;8.30;69.40